Time,TemperatureF,DewpointF,PressureIn,WindDirection,WindDirectionDegrees,WindSpeedMPH,WindSpeedGustMPH,Humidity,HourlyPrecipIn,Conditions,Clouds,dailyrainin,SoftwareType,DateUTC
2013-08-29 00:05:00,77.0,70.0,29.39,NW,315,0.0,0.0,79,0.00,,,0.00,,2013-08-29 05:05:00,
2013-08-29 00:42:00,77.0,69.0,29.39,NW,315,0.0,0.0,76,0.00,,,0.00,,2013-08-29 05:42:00,
2013-08-29 00:52:00,77.0,69.0,29.39,NW,315,0.0,0.0,76,0.00,,,0.00,,2013-08-29 05:52:00,
2013-08-29 01:12:00,77.0,69.0,29.39,NW,315,0.0,0.0,77,0.00,,,0.00,,2013-08-29 06:12:00,
2013-08-29 01:22:00,77.0,69.0,29.40,NW,315,0.0,0.0,76,0.00,,,0.00,,2013-08-29 06:22:00,
2013-08-29 01:43:00,77.0,69.0,29.40,NW,315,0.0,0.0,76,0.00,,,0.00,,2013-08-29 06:43:00,
2013-08-29 01:52:00,76.0,68.0,29.40,NW,315,0.0,0.0,77,0.00,,,0.00,,2013-08-29 06:52:00,
2013-08-29 02:12:00,76.0,69.0,29.41,NW,315,0.0,0.0,78,0.00,,,0.00,,2013-08-29 07:12:00,
2013-08-29 02:22:00,76.0,69.0,29.40,NW,315,0.0,0.0,79,0.00,,,0.00,,2013-08-29 07:22:00,
2013-08-29 02:42:00,75.0,69.0,29.40,NW,315,0.0,0.0,81,0.00,,,0.00,,2013-08-29 07:42:00,
2013-08-29 02:53:00,75.0,69.0,29.40,NW,315,0.0,0.0,81,0.00,,,0.00,,2013-08-29 07:53:00,
2013-08-29 03:12:00,74.0,69.0,29.41,NW,315,0.0,0.0,84,0.00,,,0.00,,2013-08-29 08:12:00,
2013-08-29 03:22:00,74.0,69.0,29.41,NW,315,0.0,0.0,84,0.00,,,0.00,,2013-08-29 08:22:00,
2013-08-29 03:42:00,75.0,68.0,29.41,NW,315,0.0,0.0,80,0.00,,,0.00,,2013-08-29 08:42:00,
2013-08-29 03:52:00,75.0,68.0,29.41,NW,315,0.0,0.0,80,0.00,,,0.00,,2013-08-29 08:52:00,
2013-08-29 04:12:00,75.0,67.0,29.42,North,360,0.0,0.0,76,0.00,,,0.00,,2013-08-29 09:12:00,
2013-08-29 04:22:00,74.0,66.0,29.41,North,360,0.0,0.0,77,0.00,,,0.00,,2013-08-29 09:22:00,
2013-08-29 04:43:00,74.0,66.0,29.41,NW,315,0.0,0.0,77,0.00,,,0.00,,2013-08-29 09:43:00,
2013-08-29 04:55:00,74.0,67.0,29.41,North,360,0.0,0.0,78,0.00,,,0.00,,2013-08-29 09:55:00,
2013-08-29 05:14:00,73.0,66.0,29.41,SE,135,0.0,0.0,78,0.00,,,0.00,,2013-08-29 10:14:00,
2013-08-29 05:24:00,73.0,66.0,29.41,SE,135,0.0,0.0,78,0.00,,,0.00,,2013-08-29 10:24:00,
2013-08-29 05:53:00,72.0,67.0,29.42,North,360,0.0,0.0,83,0.00,,,0.00,,2013-08-29 10:53:00,
2013-08-29 06:12:00,71.0,66.0,29.42,North,360,0.0,0.0,84,0.00,,,0.00,,2013-08-29 11:12:00,
2013-08-29 06:22:00,71.0,66.0,29.43,North,360,0.0,0.0,85,0.00,,,0.00,,2013-08-29 11:22:00,
2013-08-29 06:32:00,71.0,66.0,29.43,North,360,0.0,0.0,85,0.00,,,0.00,,2013-08-29 11:32:00,
2013-08-29 06:42:00,71.0,66.0,29.43,North,360,0.0,0.0,85,0.00,,,0.00,,2013-08-29 11:42:00,
2013-08-29 06:52:00,71.0,66.0,29.43,North,360,0.0,0.0,85,0.00,,,0.00,,2013-08-29 11:52:00,
2013-08-29 07:11:00,71.0,67.0,29.44,North,360,0.0,0.0,87,0.00,,,0.00,,2013-08-29 12:11:00,
2013-08-29 07:22:00,71.0,67.0,29.44,North,360,0.0,0.0,87,0.00,,,0.00,,2013-08-29 12:22:00,
2013-08-29 07:42:00,71.0,68.0,29.44,North,360,0.0,0.0,89,0.00,,,0.00,,2013-08-29 12:42:00,
2013-08-29 07:52:00,73.0,69.0,29.44,NW,315,0.0,0.0,86,0.00,,,0.00,,2013-08-29 12:52:00,
2013-08-29 08:12:00,76.0,69.0,29.44,NW,315,0.0,0.0,78,0.00,,,0.00,,2013-08-29 13:12:00,
2013-08-29 08:22:00,76.0,69.0,29.44,NW,315,0.0,0.0,78,0.00,,,0.00,,2013-08-29 13:22:00,
2013-08-29 08:32:00,76.0,69.0,29.44,NW,315,0.0,0.0,78,0.00,,,0.00,,2013-08-29 13:32:00,
2013-08-29 08:42:00,76.0,69.0,29.44,NW,315,0.0,0.0,78,0.00,,,0.00,,2013-08-29 13:42:00,
2013-08-29 09:42:00,86.0,65.0,29.45,NW,315,0.0,0.0,49,0.00,,,0.00,,2013-08-29 14:42:00,
2013-08-29 09:52:00,87.0,62.0,29.46,North,360,0.0,1.0,44,0.00,,,0.00,,2013-08-29 14:52:00,
2013-08-29 09:53:00,87.0,64.0,29.46,West,270,0.0,1.0,46,0.00,,,0.00,,2013-08-29 14:53:00,
2013-08-29 10:02:00,87.0,62.0,29.46,North,360,0.0,1.0,44,0.00,,,0.00,,2013-08-29 15:02:00,
2013-08-29 10:12:00,87.0,62.0,29.46,North,360,0.0,1.0,44,0.00,,,0.00,,2013-08-29 15:12:00,
2013-08-29 10:21:00,87.0,64.0,29.46,West,270,0.0,1.0,46,0.00,,,0.00,,2013-08-29 15:21:00,
2013-08-29 10:33:00,87.0,64.0,29.46,West,270,0.0,1.0,46,0.00,,,0.00,,2013-08-29 15:33:00,
2013-08-29 10:43:00,87.0,64.0,29.46,West,270,0.0,1.0,46,0.00,,,0.00,,2013-08-29 15:43:00,
2013-08-29 19:52:00,96.0,59.0,29.32,North,360,0.0,0.0,29,0.00,,,0.00,,2013-08-30 00:52:00,
2013-08-29 20:12:00,90.0,60.0,29.32,North,360,0.0,0.0,37,0.00,,,0.00,,2013-08-30 01:12:00,
2013-08-29 20:22:00,89.0,61.0,29.33,North,360,0.0,0.0,40,0.00,,,0.00,,2013-08-30 01:22:00,
2013-08-29 20:52:00,84.0,66.0,29.33,NE,45,0.0,0.0,55,0.00,,,0.00,,2013-08-30 01:52:00,
2013-08-29 21:11:00,83.0,67.0,29.33,NE,45,0.0,0.0,58,0.00,,,0.00,,2013-08-30 02:11:00,
2013-08-29 21:22:00,83.0,68.0,29.34,North,360,0.0,0.0,61,0.00,,,0.00,,2013-08-30 02:22:00,
2013-08-29 21:42:00,82.0,68.0,29.34,NW,315,0.0,0.0,63,0.00,,,0.00,,2013-08-30 02:42:00,
2013-08-29 21:52:00,82.0,69.0,29.34,North,360,0.0,0.0,64,0.00,,,0.00,,2013-08-30 02:52:00,
2013-08-29 22:12:00,81.0,68.0,29.35,West,270,0.0,0.0,64,0.00,,,0.00,,2013-08-30 03:12:00,
2013-08-29 22:22:00,81.0,68.0,29.35,West,270,0.0,0.0,64,0.00,,,0.00,,2013-08-30 03:22:00,
2013-08-29 22:55:00,80.0,67.0,29.35,North,360,0.0,0.0,65,0.00,,,0.00,,2013-08-30 03:55:00,
2013-08-29 23:14:00,79.0,67.0,29.36,North,360,0.0,0.0,67,0.00,,,0.00,,2013-08-30 04:14:00,
2013-08-29 23:24:00,78.0,67.0,29.35,North,360,0.0,0.0,70,0.00,,,0.00,,2013-08-30 04:24:00,
2013-08-29 23:54:00,78.0,69.0,29.36,North,360,0.0,0.0,73,0.00,,,0.00,,2013-08-30 04:54:00,